Airfield :







YOU CAN JOIN US ON...

 
LOGIN :

Register | Disclaimer

   EN    FR    IT 

 









Legend :    VFR   Marginal VFR   IFR   Intensive IFR   Very Intensive IFR
Visi :
Ceiling :
>= 8 km
>= 3000ft
5 to 8 km
1000 to 3000 ft
1500m to 5 km
500 to 1000 ft
800 to 1500m
200 to 500 ft
< 800m
< 200 ft
Symbols :   Thunderstorms  Fog  Heavy snow  Heavy precipitations  Wind > 20 kt







- Airport Elevation : 160 ft
- IATA code : YYG


CYYG - Charlottetown

CURRENT METAR :
  • 200700Z 23010KT 15SM OVC007 21/20 A2984 RMK ST8 SLP106 DENSITY ALT 1000FT

EXPIRED METARs :
  • 200600Z 24009KT 15SM FEW008 BKN012 OVC120 21/20 A2983 RMK SF1SC4AC2 SLP103 DENSITY ALT 1100FT
  • 200500Z 22009G15KT 15SM SCT008 OVC016 21/20 A2983 RMK SF4SC4 SLP103 DENSITY ALT 1100FT

TAF TAF CYYG
Valid from the 20 at 06:00 until the 20 at 18:00 UTC


200538Z 2006/2018 22012KT P6SM SCT008 OVC015
TEMPO 2006/2010 BKN008 OVC015
FM201000 26012KT P6SM SCT008 OVC015
TEMPO 2010/2012 BKN015
FM201200 27010KT P6SM BKN030
TEMPO 2012/2015 P6SM -SHRA OVC020
FM201500 33012KT P6SM BKN030 RMK NXT FCST BY 201200Z
No reported NOTAMs for that airfield.



MET'MAP, your aeronautical weather chart ! - Copyright ORBIFLY December 2007 - Disclaimer

ORBIFLY MET'MAP TEAM :

Programming & Development : Alexandra Zaïnal
Concept & Development : Baudouin d'Aumeries
Co-Development & Prog : Marc-Olivier Méhu
Technical & hardware support : Manuel Goepfert

Contact : metmap@orbifly.com




SOURCES & CREDITS :

   NOAA